Time;durP1;ratioP1;P1;durP2;ratioP2;P2;SDS_P1;SDS_P2;PMS_P1;PMS_P2;Temp;Humidity;BMP_temperature;BMP_pressure;BME280_temperature;BME280_humidity;BME280_pressure;Samples;Min_cycle;Max_cycle;Signal;HPM_P1;HPM_P2
2022/08/05 00:01:50;;;;;;;13.43;2.70;;;20.90;99.90;;;;;;4998030;28;20262;-80
2022/08/05 00:04:16;;;;;;;7.47;3.08;;;20.70;99.90;;;;;;4998672;28;20562;-80
2022/08/05 00:06:42;;;;;;;11.13;3.20;;;20.60;99.90;;;;;;4999832;28;20553;-79
2022/08/05 00:09:08;;;;;;;8.73;3.03;;;20.60;99.90;;;;;;4998963;28;20643;-79
2022/08/05 00:11:33;;;;;;;5.30;3.45;;;20.50;99.90;;;;;;4998520;28;20226;-79
2022/08/05 00:13:59;;;;;;;8.23;3.80;;;20.50;99.90;;;;;;4995170;28;20252;-79
2022/08/05 00:16:25;;;;;;;7.57;3.58;;;20.50;99.90;;;;;;4997138;28;20594;-79
2022/08/05 00:18:50;;;;;;;7.43;3.75;;;20.40;99.90;;;;;;4997088;28;20178;-79
2022/08/05 00:21:17;;;;;;;8.43;3.58;;;20.60;99.90;;;;;;5014002;28;20171;-79
2022/08/05 00:23:44;;;;;;;7.75;3.70;;;20.60;99.90;;;;;;4996223;28;20314;-79
2022/08/05 00:26:11;;;;;;;11.57;3.80;;;20.60;99.90;;;;;;4996383;28;20209;-79
2022/08/05 00:28:37;;;;;;;7.25;3.53;;;20.50;99.90;;;;;;4996402;28;20182;-79
2022/08/05 00:31:04;;;;;;;7.33;3.63;;;20.30;99.90;;;;;;4996641;28;20170;-79
2022/08/05 00:33:30;;;;;;;8.82;4.13;;;20.40;99.90;;;;;;4996057;28;20233;-79
2022/08/05 00:35:56;;;;;;;10.37;4.20;;;20.30;99.90;;;;;;4995993;28;20241;-79
2022/08/05 00:38:22;;;;;;;8.17;4.10;;;20.20;99.90;;;;;;4996529;28;20174;-79
2022/08/05 00:40:50;;;;;;;8.30;4.20;;;20.10;99.90;;;;;;4995559;28;20262;-79
2022/08/05 00:43:16;;;;;;;8.95;4.50;;;20.10;99.90;;;;;;5012056;28;20214;-79
2022/08/05 00:45:43;;;;;;;7.43;4.50;;;19.90;99.90;;;;;;4998136;28;20541;-79
2022/08/05 00:48:14;;;;;;;11.63;4.40;;;19.90;99.90;;;;;;4999137;28;20751;-79
2022/08/05 00:50:42;;;;;;;10.32;4.47;;;19.90;99.90;;;;;;4998522;28;20177;-78
2022/08/05 00:53:08;;;;;;;8.32;4.75;;;20.00;99.90;;;;;;4997967;28;20630;-79
2022/08/05 00:55:33;;;;;;;8.83;4.13;;;19.90;99.90;;;;;;4998486;28;20218;-79
2022/08/05 00:57:59;;;;;;;10.17;4.60;;;19.80;99.90;;;;;;4998704;28;20916;-79
2022/08/05 01:00:29;;;;;;;6.78;4.32;;;19.80;99.90;;;;;;4998182;28;20179;-79
2022/08/05 01:02:56;;;;;;;11.00;4.27;;;19.80;99.90;;;;;;4997999;28;20175;-79
2022/08/05 01:05:22;;;;;;;9.07;4.57;;;19.70;99.90;;;;;;4998074;28;20305;-79
2022/08/05 01:07:48;;;;;;;10.48;4.65;;;19.70;99.90;;;;;;4998397;28;20233;-79
2022/08/05 01:10:17;;;;;;;9.73;4.93;;;19.90;99.90;;;;;;4997878;28;20175;-80
2022/08/05 01:12:47;;;;;;;6.03;4.70;;;19.80;99.90;;;;;;4998765;28;20211;-80
2022/08/05 01:15:16;;;;;;;9.27;4.70;;;19.90;99.90;;;;;;5000697;28;20253;-80
2022/08/05 01:18:04;;;;;;;9.88;4.65;;;19.60;99.90;;;;;;5000655;28;20200;-81
2022/08/05 01:20:39;;;;;;;11.30;5.00;;;19.60;99.90;;;;;;5001032;28;20179;-81
2022/08/05 01:23:42;;;;;;;7.60;4.40;;;19.70;99.90;;;;;;5000376;28;20166;-80
2022/08/05 01:26:17;;;;;;;10.40;5.20;;;19.50;99.90;;;;;;5018223;28;20230;-81
2022/08/05 01:29:07;;;;;;;8.90;4.70;;;19.50;99.90;;;;;;5000224;28;20174;-81
2022/08/05 01:32:01;;;;;;;8.53;5.00;;;19.50;99.90;;;;;;5017598;28;20171;-80
2022/08/05 01:34:35;;;;;;;9.30;5.43;;;19.40;99.90;;;;;;4997621;28;20218;-81
2022/08/05 01:37:31;;;;;;;12.83;5.60;;;19.40;99.90;;;;;;5000368;28;20197;-81
2022/08/05 01:39:59;;;;;;;10.63;6.23;;;19.30;99.90;;;;;;5000228;28;20194;-81
2022/08/05 01:42:28;;;;;;;12.43;5.83;;;19.30;99.90;;;;;;5017312;28;20163;-80
2022/08/05 01:44:59;;;;;;;15.40;6.33;;;19.20;99.90;;;;;;5000084;28;20191;-80
2022/08/05 01:47:27;;;;;;;8.77;5.53;;;19.20;99.90;;;;;;5000403;28;20223;-80
2022/08/05 01:49:54;;;;;;;10.80;6.23;;;19.10;99.90;;;;;;5000392;28;20270;-81
2022/08/05 01:52:21;;;;;;;12.67;5.77;;;19.30;99.90;;;;;;4999503;28;20195;-80
2022/08/05 01:54:56;;;;;;;15.13;6.57;;;19.20;99.90;;;;;;4999885;28;20200;-81
2022/08/05 01:57:29;;;;;;;10.37;6.53;;;19.30;99.90;;;;;;4998815;28;20217;-80
2022/08/05 01:59:59;;;;;;;9.90;6.30;;;19.30;99.90;;;;;;4999709;28;20171;-80
2022/08/05 02:02:27;;;;;;;10.00;7.07;;;19.10;99.90;;;;;;5017671;28;20221;-79
2022/08/05 02:05:00;;;;;;;12.40;6.97;;;19.20;99.90;;;;;;4999603;28;20562;-79
2022/08/05 02:07:25;;;;;;;13.13;7.00;;;19.20;99.90;;;;;;5000275;28;20171;-80
2022/08/05 02:09:51;;;;;;;13.67;7.30;;;19.20;99.90;;;;;;4999675;28;20535;-79
2022/08/05 02:12:21;;;;;;;14.00;7.50;;;19.20;99.90;;;;;;4998646;28;20264;-79
2022/08/05 02:14:52;;;;;;;16.10;7.50;;;19.10;99.90;;;;;;4999350;28;20559;-80
2022/08/05 02:17:30;;;;;;;18.43;7.53;;;19.20;99.90;;;;;;4999613;28;20171;-79
2022/08/05 02:20:01;;;;;;;15.43;8.10;;;19.00;99.90;;;;;;5000478;28;20170;-79
2022/08/05 02:22:35;;;;;;;14.00;8.30;;;19.00;99.90;;;;;;4999167;28;20174;-79
2022/08/05 02:25:27;;;;;;;12.77;8.07;;;19.00;99.90;;;;;;4998835;28;20209;-79
2022/08/05 02:27:56;;;;;;;13.77;8.63;;;19.00;99.90;;;;;;4997982;28;20178;-79
2022/08/05 02:30:28;;;;;;;13.67;8.10;;;18.90;99.90;;;;;;4997941;28;20511;-79
2022/08/05 02:32:56;;;;;;;12.30;7.97;;;18.80;99.90;;;;;;4996782;28;20234;-79
2022/08/05 02:35:25;;;;;;;15.73;7.73;;;18.90;99.90;;;;;;4997467;28;20706;-79
2022/08/05 02:37:52;;;;;;;18.90;8.60;;;19.10;99.90;;;;;;4997899;28;20578;-79
2022/08/05 02:40:20;;;;;;;16.30;8.90;;;18.90;99.90;;;;;;4998684;28;20662;-79
2022/08/05 02:42:47;;;;;;;15.90;8.37;;;18.90;99.90;;;;;;4998440;28;20590;-79
2022/08/05 02:45:14;;;;;;;14.23;8.70;;;19.00;99.90;;;;;;4998335;28;20671;-78
2022/08/05 02:47:41;;;;;;;16.93;8.50;;;19.10;99.90;;;;;;4998245;28;20217;-79
2022/08/05 02:50:08;;;;;;;16.37;9.13;;;18.90;99.90;;;;;;4997846;28;20570;-79
2022/08/05 02:52:35;;;;;;;14.53;8.67;;;18.70;99.90;;;;;;4999532;28;20687;-80
2022/08/05 02:55:02;;;;;;;12.53;8.70;;;18.70;99.90;;;;;;4999629;28;20285;-79
2022/08/05 02:57:29;;;;;;;16.00;8.50;;;18.80;99.90;;;;;;4999792;28;20174;-79
2022/08/05 02:59:55;;;;;;;19.13;9.07;;;18.80;99.90;;;;;;4999640;28;20185;-79
2022/08/05 03:02:24;;;;;;;19.47;9.60;;;18.90;99.90;;;;;;5000534;28;20183;-79
2022/08/05 03:04:53;;;;;;;14.33;8.93;;;18.80;99.90;;;;;;5000049;28;20218;-79
2022/08/05 03:07:19;;;;;;;19.23;8.93;;;18.70;99.90;;;;;;4997663;28;20185;-79
2022/08/05 03:09:45;;;;;;;17.20;8.47;;;18.70;99.90;;;;;;4997269;28;20521;-79
2022/08/05 03:12:29;;;;;;;15.37;8.93;;;18.90;99.90;;;;;;4996292;28;20213;-80
2022/08/05 03:14:55;;;;;;;18.30;10.03;;;18.90;99.90;;;;;;4997647;28;20202;-79
2022/08/05 03:17:21;;;;;;;22.33;9.37;;;19.10;99.90;;;;;;4998113;28;20179;-79
2022/08/05 03:19:46;;;;;;;15.23;8.60;;;19.00;99.90;;;;;;4997765;28;20613;-79
2022/08/05 03:22:13;;;;;;;17.53;8.70;;;18.90;99.90;;;;;;4996917;28;20179;-79
2022/08/05 03:24:39;;;;;;;23.50;10.10;;;18.90;99.90;;;;;;4997299;28;20560;-79
2022/08/05 03:27:05;;;;;;;16.30;9.00;;;18.90;99.90;;;;;;4997261;28;20175;-78
2022/08/05 03:29:30;;;;;;;17.73;9.73;;;18.70;99.90;;;;;;4997151;28;20186;-79
2022/08/05 03:31:56;;;;;;;19.97;10.13;;;18.70;99.90;;;;;;4995955;28;20659;-80
2022/08/05 03:34:22;;;;;;;17.50;9.87;;;18.80;99.90;;;;;;4996765;28;20572;-80
2022/08/05 03:36:47;;;;;;;18.77;9.93;;;18.80;99.90;;;;;;4997455;28;20197;-80
2022/08/05 03:39:13;;;;;;;18.70;10.43;;;18.50;99.90;;;;;;4997375;28;20171;-79
2022/08/05 03:41:39;;;;;;;21.03;10.33;;;18.50;99.90;;;;;;4997189;28;20178;-78
2022/08/05 03:44:04;;;;;;;16.03;9.57;;;18.40;99.90;;;;;;5014108;28;20171;-78
2022/08/05 03:46:30;;;;;;;22.13;10.90;;;18.50;99.90;;;;;;4996411;28;20547;-79
2022/08/05 03:48:56;;;;;;;19.00;9.80;;;18.60;99.90;;;;;;4996384;28;20205;-79
2022/08/05 03:51:29;;;;;;;18.87;10.10;;;18.60;99.90;;;;;;4996626;28;20178;-78
2022/08/05 03:54:06;;;;;;;21.57;10.50;;;18.70;99.90;;;;;;4996924;28;20202;-79
2022/08/05 03:56:41;;;;;;;18.83;10.80;;;18.70;99.90;;;;;;4997034;28;20166;-79
2022/08/05 03:59:27;;;;;;;18.10;10.23;;;18.40;99.90;;;;;;5006340;28;20223;-79
2022/08/05 04:01:55;;;;;;;16.47;9.50;;;18.50;99.90;;;;;;5002948;28;20538;-79
2022/08/05 04:04:22;;;;;;;22.70;10.97;;;18.40;99.90;;;;;;4999426;28;20187;-80
2022/08/05 04:06:48;;;;;;;20.23;10.50;;;18.30;99.90;;;;;;4995925;28;20174;-80
2022/08/05 04:09:15;;;;;;;19.93;10.57;;;18.40;99.90;;;;;;4995453;28;20627;-79
2022/08/05 04:11:41;;;;;;;18.07;10.40;;;18.20;99.90;;;;;;4994217;28;20681;-79
2022/08/05 04:14:07;;;;;;;20.23;11.03;;;18.20;99.90;;;;;;4994887;28;20207;-79
2022/08/05 04:16:34;;;;;;;20.33;11.33;;;18.20;99.90;;;;;;4994981;28;20228;-79
2022/08/05 04:19:00;;;;;;;21.87;11.57;;;18.20;99.90;;;;;;4996553;28;20171;-79
2022/08/05 04:21:27;;;;;;;24.50;12.53;;;18.00;99.90;;;;;;5001143;28;20170;-78
2022/08/05 04:23:52;;;;;;;26.40;12.87;;;17.90;99.90;;;;;;5001260;28;20220;-78
2022/08/05 04:26:18;;;;;;;26.97;12.67;;;17.80;99.90;;;;;;5001456;28;20206;-79
2022/08/05 04:28:44;;;;;;;26.63;13.23;;;17.70;99.90;;;;;;5001492;28;20714;-78
2022/08/05 04:31:09;;;;;;;20.97;13.67;;;17.60;99.90;;;;;;5001850;28;20179;-77
2022/08/05 04:33:35;;;;;;;31.30;14.37;;;17.70;99.90;;;;;;5001396;28;20679;-78
2022/08/05 04:36:01;;;;;;;30.20;14.27;;;17.80;99.90;;;;;;5001583;28;20195;-78
2022/08/05 04:38:26;;;;;;;28.73;14.20;;;17.80;99.90;;;;;;5001362;28;20206;-78
2022/08/05 04:40:52;;;;;;;26.43;14.53;;;17.90;99.90;;;;;;5001442;28;20170;-79
2022/08/05 04:43:18;;;;;;;24.73;14.50;;;17.80;99.90;;;;;;5019028;28;20170;-78
2022/08/05 04:45:44;;;;;;;27.03;14.10;;;18.00;99.90;;;;;;5001156;28;20195;-78
2022/08/05 04:48:12;;;;;;;29.07;13.93;;;18.00;99.90;;;;;;5001948;28;20178;-78
2022/08/05 04:50:47;;;;;;;26.47;13.93;;;17.80;99.90;;;;;;5001351;28;20181;-78
2022/08/05 04:53:14;;;;;;;25.43;14.23;;;17.90;99.90;;;;;;5001058;28;20678;-78
2022/08/05 04:55:40;;;;;;;28.17;13.13;;;17.80;99.90;;;;;;5000945;28;20217;-78
2022/08/05 04:58:08;;;;;;;23.13;13.43;;;17.80;99.90;;;;;;5001592;28;20167;-79
2022/08/05 05:00:35;;;;;;;20.80;12.73;;;17.80;99.90;;;;;;5000996;28;20174;-78
2022/08/05 05:03:02;;;;;;;21.60;12.43;;;17.70;99.90;;;;;;5000750;28;20175;-79
2022/08/05 05:05:29;;;;;;;21.93;12.77;;;17.80;99.90;;;;;;5000944;28;20670;-78
2022/08/05 05:08:15;;;;;;;24.20;13.80;;;17.60;99.90;;;;;;5001431;28;20317;-78
2022/08/05 05:10:43;;;;;;;25.47;12.93;;;17.60;99.90;;;;;;5001279;28;20193;-79
2022/08/05 05:13:11;;;;;;;31.70;13.97;;;17.60;99.90;;;;;;5001473;28;20212;-79
2022/08/05 05:15:37;;;;;;;22.87;13.67;;;17.60;99.90;;;;;;5002255;28;20190;-79
2022/08/05 05:18:03;;;;;;;26.83;14.13;;;17.50;99.90;;;;;;5003115;28;20166;-79
2022/08/05 05:20:29;;;;;;;27.70;13.90;;;17.60;99.90;;;;;;5001825;28;20202;-79
2022/08/05 05:22:56;;;;;;;25.03;14.27;;;17.60;99.90;;;;;;5002356;28;20579;-79
2022/08/05 05:25:22;;;;;;;29.60;13.80;;;17.60;99.90;;;;;;5002864;28;20281;-79
2022/08/05 05:27:47;;;;;;;25.17;14.00;;;17.60;99.90;;;;;;5002852;28;20205;-79
2022/08/05 05:30:14;;;;;;;31.83;14.53;;;17.70;99.90;;;;;;5001506;28;20210;-78
2022/08/05 05:32:39;;;;;;;30.90;14.20;;;17.60;99.90;;;;;;4998065;28;20606;-79
2022/08/05 05:35:05;;;;;;;26.20;13.93;;;17.50;99.90;;;;;;4999422;28;20199;-79
2022/08/05 05:37:31;;;;;;;27.47;14.17;;;17.60;99.90;;;;;;4999969;28;20181;-79
2022/08/05 05:39:57;;;;;;;22.30;13.20;;;17.70;99.90;;;;;;4999218;28;20612;-78
2022/08/05 05:42:22;;;;;;;27.37;13.67;;;17.60;99.90;;;;;;4998845;28;20229;-78
2022/08/05 05:44:48;;;;;;;28.60;13.63;;;17.70;99.90;;;;;;4998614;28;20705;-79
2022/08/05 05:47:13;;;;;;;33.67;13.63;;;17.80;99.90;;;;;;4999115;28;20174;-79
2022/08/05 05:49:39;;;;;;;29.40;14.57;;;18.00;99.90;;;;;;5015539;28;20170;-78
2022/08/05 05:52:05;;;;;;;26.40;13.20;;;17.80;99.90;;;;;;4998413;28;20228;-79
2022/08/05 05:54:31;;;;;;;24.80;13.30;;;17.90;99.90;;;;;;4998901;28;20746;-79
2022/08/05 05:56:56;;;;;;;23.70;12.30;;;17.80;99.90;;;;;;5000295;28;20245;-79
2022/08/05 05:59:23;;;;;;;23.00;12.43;;;17.80;99.90;;;;;;4999438;28;20171;-78
2022/08/05 06:01:48;;;;;;;23.37;12.43;;;17.80;99.90;;;;;;4998895;28;20177;-79
2022/08/05 06:04:14;;;;;;;23.90;12.00;;;17.90;99.90;;;;;;4998272;28;20194;-79
2022/08/05 06:06:42;;;;;;;17.60;11.57;;;17.90;99.90;;;;;;4999676;28;20756;-79
2022/08/05 06:09:07;;;;;;;23.03;11.33;;;17.90;99.90;;;;;;4998890;28;20181;-79
2022/08/05 06:11:33;;;;;;;19.30;11.23;;;17.70;99.90;;;;;;4998803;28;20195;-79
2022/08/05 06:13:59;;;;;;;22.80;11.33;;;17.80;99.90;;;;;;4996541;28;20206;-78
2022/08/05 06:16:25;;;;;;;22.40;11.80;;;17.80;99.90;;;;;;4997067;28;20225;-79
2022/08/05 06:18:51;;;;;;;24.00;11.30;;;17.90;99.90;;;;;;4996710;28;20175;-78
2022/08/05 06:21:20;;;;;;;22.37;11.37;;;17.80;99.90;;;;;;4996542;28;20229;-78
2022/08/05 06:23:45;;;;;;;20.87;10.53;;;17.90;99.90;;;;;;4996699;28;20217;-78
2022/08/05 06:26:12;;;;;;;22.40;10.87;;;17.90;99.90;;;;;;4996888;28;20771;-78
2022/08/05 06:28:37;;;;;;;17.53;10.83;;;17.80;99.90;;;;;;4996495;28;20178;-78
2022/08/05 06:31:03;;;;;;;22.37;10.43;;;17.80;99.90;;;;;;4996295;28;20175;-78
2022/08/05 06:33:28;;;;;;;21.43;10.57;;;17.70;99.90;;;;;;4995913;28;20199;-78
2022/08/05 06:35:54;;;;;;;17.20;9.20;;;17.80;99.90;;;;;;4996462;28;20194;-78
2022/08/05 06:38:20;;;;;;;16.50;8.70;;;17.70;99.90;;;;;;4998839;28;20207;-78
2022/08/05 06:40:45;;;;;;;15.70;8.73;;;17.70;99.90;;;;;;5001522;28;20175;-78
2022/08/05 06:43:12;;;;;;;13.27;8.70;;;17.70;99.90;;;;;;4998704;28;20537;-78
2022/08/05 06:45:37;;;;;;;17.97;8.37;;;17.90;99.90;;;;;;4997329;28;20205;-78
2022/08/05 06:48:03;;;;;;;13.87;7.90;;;17.70;99.90;;;;;;4996237;28;20170;-77
2022/08/05 06:50:29;;;;;;;17.07;8.17;;;17.70;99.90;;;;;;4996006;28;20651;-77
2022/08/05 06:52:55;;;;;;;16.03;8.20;;;17.70;99.90;;;;;;4995885;28;20206;-77
2022/08/05 06:55:20;;;;;;;15.27;8.37;;;17.80;99.90;;;;;;4996208;28;20199;-77
2022/08/05 06:57:46;;;;;;;14.13;7.90;;;17.80;99.90;;;;;;4996433;28;20210;-77
2022/08/05 07:00:12;;;;;;;14.63;7.90;;;17.70;99.90;;;;;;4996842;28;20171;-78
2022/08/05 07:02:42;;;;;;;14.13;8.37;;;17.80;99.90;;;;;;4996690;28;20178;-78
2022/08/05 07:05:08;;;;;;;17.50;7.80;;;17.80;99.90;;;;;;4996995;28;20238;-77
2022/08/05 07:07:34;;;;;;;12.80;7.47;;;17.80;99.90;;;;;;5015366;28;20189;-79
2022/08/05 07:09:59;;;;;;;15.37;7.60;;;17.90;99.90;;;;;;4998465;28;20707;-79
2022/08/05 07:18:04;;;;;;;12.70;7.43;;;17.80;99.90;;;;;;5014735;28;20170;-81
2022/08/05 07:20:30;;;;;;;11.43;7.37;;;17.70;99.90;;;;;;4997248;28;20567;-81
2022/08/05 07:22:55;;;;;;;14.60;8.30;;;17.80;99.90;;;;;;4998050;28;20178;-80
2022/08/05 07:25:21;;;;;;;17.37;8.23;;;17.80;99.90;;;;;;4997013;28;20190;-81
2022/08/05 07:27:52;;;;;;;11.37;7.47;;;17.70;99.90;;;;;;4997242;28;20799;-81
2022/08/05 07:30:18;;;;;;;14.83;8.43;;;17.70;99.90;;;;;;4996603;28;20175;-81
2022/08/05 07:32:43;;;;;;;11.70;8.17;;;17.70;99.90;;;;;;4996564;28;20202;-81
2022/08/05 07:35:10;;;;;;;15.33;9.33;;;17.70;99.90;;;;;;4998266;28;20186;-81
2022/08/05 07:37:37;;;;;;;21.47;9.40;;;17.80;99.90;;;;;;4997017;28;20182;-80
2022/08/05 07:40:04;;;;;;;14.97;9.63;;;17.60;99.90;;;;;;4995682;28;20166;-81
2022/08/05 07:42:29;;;;;;;19.13;10.20;;;17.50;99.90;;;;;;4995719;28;20177;-81
2022/08/05 07:44:55;;;;;;;19.50;9.87;;;17.60;99.90;;;;;;5014046;28;20186;-81
2022/08/05 07:47:21;;;;;;;18.47;10.17;;;17.70;99.90;;;;;;4997070;28;20186;-82
2022/08/05 07:49:47;;;;;;;16.20;9.40;;;17.80;99.90;;;;;;4997594;28;20261;-82
2022/08/05 07:52:12;;;;;;;18.07;9.00;;;17.90;99.90;;;;;;4996173;28;20210;-82
2022/08/05 07:54:38;;;;;;;19.03;9.23;;;17.90;99.90;;;;;;4996599;28;20194;-81
2022/08/05 07:57:04;;;;;;;15.77;7.87;;;17.90;99.90;;;;;;4996531;28;20554;-81
2022/08/05 07:59:30;;;;;;;18.10;8.23;;;18.00;99.90;;;;;;4996568;28;20183;-81
2022/08/05 08:01:55;;;;;;;12.17;8.03;;;18.00;99.90;;;;;;4995835;28;20178;-81
2022/08/05 08:04:21;;;;;;;13.67;7.83;;;18.10;99.90;;;;;;4995506;28;20655;-81
2022/08/05 08:06:47;;;;;;;13.47;7.93;;;18.20;99.90;;;;;;4996179;28;20179;-81
2022/08/05 08:09:12;;;;;;;9.23;6.60;;;18.10;99.90;;;;;;4995511;28;20181;-80
2022/08/05 08:11:38;;;;;;;12.03;7.20;;;18.50;99.90;;;;;;4995986;28;20205;-80
2022/08/05 08:14:04;;;;;;;9.00;6.17;;;18.30;99.90;;;;;;4995491;28;20305;-81
2022/08/05 08:16:29;;;;;;;10.80;6.47;;;18.10;99.90;;;;;;4995744;28;20181;-80
2022/08/05 08:18:55;;;;;;;10.00;6.17;;;18.00;99.90;;;;;;5012949;28;20182;-81
2022/08/05 08:21:20;;;;;;;13.83;6.60;;;17.90;99.90;;;;;;4995529;28;20181;-80
2022/08/05 08:23:46;;;;;;;11.80;7.10;;;17.70;99.90;;;;;;4995170;28;20185;-80
2022/08/05 08:26:12;;;;;;;14.77;6.30;;;17.70;99.90;;;;;;4995328;28;20705;-81
2022/08/05 08:28:38;;;;;;;14.80;6.63;;;17.70;99.90;;;;;;4995244;28;20209;-80
2022/08/05 08:31:07;;;;;;;19.83;6.93;;;17.80;99.90;;;;;;4994819;28;20662;-80
2022/08/05 08:33:33;;;;;;;13.23;6.60;;;17.80;99.90;;;;;;4994676;28;20206;-80
2022/08/05 08:35:59;;;;;;;9.97;6.70;;;17.60;99.90;;;;;;4994797;28;20199;-81
2022/08/05 08:38:24;;;;;;;9.77;6.70;;;17.60;99.90;;;;;;4994888;28;20627;-81
2022/08/05 08:40:50;;;;;;;10.23;6.20;;;17.70;99.90;;;;;;4994916;28;20178;-80
2022/08/05 08:43:18;;;;;;;9.80;6.40;;;17.80;99.90;;;;;;4994918;28;20189;-81
2022/08/05 08:45:45;;;;;;;11.40;5.77;;;18.10;99.90;;;;;;4995417;28;20199;-79
2022/08/05 08:48:13;;;;;;;8.43;5.53;;;18.10;99.90;;;;;;4995840;28;20571;-81
2022/08/05 08:50:41;;;;;;;13.57;5.50;;;18.00;99.90;;;;;;4995415;28;20590;-80
2022/08/05 08:53:10;;;;;;;12.30;5.57;;;18.10;99.90;;;;;;4995125;28;20210;-80
2022/08/05 08:55:37;;;;;;;9.53;5.53;;;18.10;99.90;;;;;;4995243;28;20230;-79
2022/08/05 08:58:03;;;;;;;10.87;5.80;;;18.10;99.90;;;;;;4995683;28;20245;-81
2022/08/05 09:00:29;;;;;;;12.37;6.27;;;17.90;99.90;;;;;;4995741;28;20624;-79
2022/08/05 09:02:56;;;;;;;12.50;6.07;;;17.80;99.90;;;;;;4995525;28;20214;-80
2022/08/05 09:05:23;;;;;;;12.10;5.43;;;17.70;99.90;;;;;;4996580;28;20201;-80
2022/08/05 09:07:52;;;;;;;10.93;5.83;;;17.80;99.90;;;;;;5070240;23;20234;-83
2022/08/05 09:10:19;;;;;;;11.67;6.23;;;17.80;99.90;;;;;;5032641;28;20565;-83
2022/08/05 09:12:45;;;;;;;10.20;5.40;;;17.70;99.90;;;;;;5033570;28;20728;-83
2022/08/05 09:15:11;;;;;;;9.90;5.87;;;17.60;99.90;;;;;;5035632;28;20170;-83
2022/08/05 09:17:37;;;;;;;14.53;6.00;;;17.70;99.90;;;;;;5035101;28;20194;-84
2022/08/05 09:20:04;;;;;;;10.47;5.47;;;17.70;99.90;;;;;;5034719;28;20162;-84
2022/08/05 09:23:03;;;;;;;8.00;4.97;;;17.70;99.90;;;;;;5058073;23;20234;-78
2022/08/05 09:25:28;;;;;;;10.37;4.97;;;17.50;99.90;;;;;;5039954;28;20182;-79
2022/08/05 09:27:54;;;;;;;11.30;5.53;;;17.50;99.90;;;;;;5039923;28;20170;-79
2022/08/05 09:30:20;;;;;;;10.93;5.40;;;17.60;99.90;;;;;;5041108;28;20176;-79
2022/08/05 09:32:45;;;;;;;7.07;4.70;;;17.60;99.90;;;;;;5039997;28;20574;-78
2022/08/05 09:35:13;;;;;;;10.20;5.60;;;17.60;99.90;;;;;;5039788;28;20178;-78
2022/08/05 09:37:50;;;;;;;10.60;4.93;;;17.60;99.90;;;;;;5039709;28;20170;-78
2022/08/05 09:40:38;;;;;;;6.73;4.70;;;17.60;99.90;;;;;;5039069;28;20176;-78
2022/08/05 09:43:09;;;;;;;9.30;4.97;;;17.70;99.90;;;;;;5039429;28;20615;-78
2022/08/05 09:45:42;;;;;;;7.90;4.70;;;17.80;99.90;;;;;;5042024;28;20178;-78
2022/08/05 09:48:28;;;;;;;7.73;4.43;;;17.70;99.90;;;;;;5040390;28;20166;-78
2022/08/05 09:50:57;;;;;;;6.83;4.40;;;17.80;99.90;;;;;;5040160;28;20745;-78
2022/08/05 09:53:23;;;;;;;6.50;4.27;;;17.70;99.90;;;;;;5037931;28;20202;-78
2022/08/05 09:55:54;;;;;;;7.03;4.23;;;17.90;99.90;;;;;;5040358;28;20174;-78
2022/08/05 09:58:20;;;;;;;7.17;4.50;;;17.90;99.90;;;;;;5037944;28;20182;-78
2022/08/05 10:00:57;;;;;;;7.43;4.40;;;17.80;99.90;;;;;;5040135;28;20670;-78
2022/08/05 10:03:22;;;;;;;6.57;4.00;;;17.80;99.90;;;;;;5038477;28;20177;-78
2022/08/05 10:06:04;;;;;;;11.80;4.23;;;17.70;99.90;;;;;;5039416;28;20594;-78
2022/08/05 10:08:29;;;;;;;6.77;4.30;;;17.80;99.90;;;;;;5036903;28;20681;-79
2022/08/05 10:10:55;;;;;;;10.47;5.00;;;18.00;99.90;;;;;;5036054;28;20201;-79
2022/08/05 10:13:35;;;;;;;8.77;4.33;;;18.20;99.90;;;;;;5033946;28;20682;-79
2022/08/05 10:16:02;;;;;;;8.17;4.13;;;18.20;99.90;;;;;;5034313;28;20190;-79
2022/08/05 10:18:30;;;;;;;10.00;4.27;;;18.10;99.90;;;;;;5035610;28;20178;-79
2022/08/05 10:21:02;;;;;;;9.37;4.37;;;18.40;99.90;;;;;;5036621;28;20173;-80
2022/08/05 10:23:33;;;;;;;6.03;3.83;;;18.50;99.90;;;;;;5035303;28;20182;-79
2022/08/05 10:26:02;;;;;;;4.00;3.30;;;18.50;99.90;;;;;;5036420;28;20170;-79
2022/08/05 10:28:29;;;;;;;5.33;3.40;;;18.50;99.90;;;;;;5035433;28;20185;-79
2022/08/05 10:30:55;;;;;;;6.50;3.37;;;18.60;99.90;;;;;;5034907;28;20185;-79
2022/08/05 10:33:22;;;;;;;7.13;3.80;;;18.40;99.90;;;;;;5035527;28;20259;-79
2022/08/05 10:35:49;;;;;;;6.60;3.50;;;18.60;99.90;;;;;;5034600;28;20235;-79
2022/08/05 10:38:18;;;;;;;7.80;3.97;;;18.40;99.90;;;;;;5036181;28;20662;-79
2022/08/05 10:40:52;;;;;;;5.67;3.77;;;18.60;99.90;;;;;;5036206;28;20245;-80
2022/08/05 10:43:40;;;;;;;7.67;3.50;;;18.60;99.90;;;;;;5037263;28;20190;-80
2022/08/05 10:46:12;;;;;;;5.00;3.40;;;18.80;99.90;;;;;;5036942;28;20247;-79
2022/08/05 10:48:44;;;;;;;6.47;3.37;;;18.90;99.90;;;;;;5035715;28;20177;-79
2022/08/05 10:51:15;;;;;;;9.23;3.43;;;18.70;99.90;;;;;;5038908;28;20564;-80
2022/08/05 10:53:50;;;;;;;6.23;3.87;;;18.90;99.90;;;;;;5040885;28;20193;-79
2022/08/05 10:56:18;;;;;;;6.57;4.20;;;19.10;99.90;;;;;;5038791;28;20181;-80
2022/08/05 10:58:52;;;;;;;6.90;3.90;;;19.30;99.90;;;;;;5037025;28;20174;-80
2022/08/05 11:01:29;;;;;;;4.30;3.27;;;20.00;99.90;;;;;;5034481;28;20189;-79
2022/08/05 11:04:10;;;;;;;5.72;3.38;;;19.80;99.90;;;;;;5035854;28;20197;-79
2022/08/05 11:06:56;;;;;;;5.85;2.70;;;20.00;99.90;;;;;;5036229;28;20201;-79
2022/08/05 11:09:24;;;;;;;4.13;2.55;;;19.90;99.90;;;;;;5036061;28;20197;-80
2022/08/05 11:11:52;;;;;;;4.30;2.60;;;19.90;99.90;;;;;;5035702;28;20198;-80
2022/08/05 11:14:32;;;;;;;2.67;2.00;;;19.90;99.90;;;;;;5036566;28;20193;-81
2022/08/05 11:17:23;;;;;;;4.28;1.88;;;19.80;99.90;;;;;;5037524;28;20166;-80
2022/08/05 11:19:48;;;;;;;2.85;1.85;;;20.10;99.90;;;;;;5035919;28;20646;-80
2022/08/05 11:22:51;;;;;;;4.30;2.13;;;19.90;99.90;;;;;;5033839;28;20259;-80
2022/08/05 11:25:37;;;;;;;3.17;1.88;;;19.90;99.90;;;;;;4973937;28;20171;-79
2022/08/05 11:28:10;;;;;;;2.25;1.98;;;20.10;99.90;;;;;;5033756;28;20182;-79
2022/08/05 11:30:54;;;;;;;5.93;2.10;;;20.50;99.90;;;;;;5037135;28;20165;-80
2022/08/05 11:33:33;;;;;;;2.80;1.90;;;20.70;99.90;;;;;;5033821;28;20202;-82
2022/08/05 11:36:07;;;;;;;6.07;2.53;;;20.80;99.90;;;;;;5032723;28;20173;-84
2022/08/05 11:38:42;;;;;;;3.28;1.73;;;21.00;99.90;;;;;;5034215;28;20186;-84
2022/08/05 11:41:23;;;;;;;9.93;5.40;;;21.10;99.90;;;;;;5033257;28;20180;-82
2022/08/05 11:44:05;;;;;;;18.13;7.53;;;21.20;99.90;;;;;;5035152;28;20202;-81
2022/08/05 11:46:34;;;;;;;12.75;5.05;;;21.30;99.90;;;;;;5034285;28;20166;-81
2022/08/05 11:49:02;;;;;;;10.93;3.53;;;21.60;99.90;;;;;;5033326;28;20178;-81
2022/08/05 11:51:29;;;;;;;8.18;3.42;;;21.40;99.90;;;;;;5030825;28;20217;-79
2022/08/05 11:53:55;;;;;;;9.75;4.18;;;21.40;99.90;;;;;;5036141;28;20701;-77
2022/08/05 11:56:22;;;;;;;5.88;3.20;;;21.50;99.90;;;;;;5033145;28;20174;-77
2022/08/05 11:58:48;;;;;;;8.63;2.90;;;22.00;99.90;;;;;;5031004;28;20174;-79
2022/08/05 12:01:21;;;;;;;13.18;4.00;;;22.30;99.90;;;;;;5031420;28;20596;-77
2022/08/05 12:03:53;;;;;;;6.93;2.88;;;22.40;99.90;;;;;;5033037;28;20824;-78
2022/08/05 12:06:24;;;;;;;6.07;3.42;;;22.80;99.90;;;;;;5033119;28;20174;-79
2022/08/05 12:08:57;;;;;;;6.65;2.70;;;22.50;99.90;;;;;;5032038;28;20182;-79
2022/08/05 12:11:24;;;;;;;4.03;2.30;;;22.20;99.90;;;;;;5030976;28;20201;-77
2022/08/05 12:14:01;;;;;;;3.35;2.35;;;22.10;99.90;;;;;;5030575;28;20233;-77
2022/08/05 12:16:33;;;;;;;3.17;2.55;;;22.20;99.90;;;;;;5031838;28;20177;-80
2022/08/05 12:18:59;;;;;;;4.75;2.55;;;22.10;99.90;;;;;;5031865;28;20178;-81
2022/08/05 12:21:30;;;;;;;4.32;2.55;;;21.90;99.90;;;;;;5034236;28;20202;-81
2022/08/05 12:24:38;;;;;;;5.32;2.75;;;21.80;99.90;;;;;;5033969;28;20625;-81
2022/08/05 12:27:04;;;;;;;3.50;2.53;;;21.60;99.90;;;;;;4971164;28;20195;-80
2022/08/05 12:29:29;;;;;;;4.90;2.75;;;21.70;99.90;;;;;;4971922;28;20176;-81
2022/08/05 12:31:58;;;;;;;5.03;2.72;;;21.70;99.90;;;;;;4990996;28;20205;-79
2022/08/05 12:34:31;;;;;;;3.55;2.40;;;21.60;99.90;;;;;;5032514;28;20295;-77
2022/08/05 12:37:09;;;;;;;3.78;2.65;;;21.60;99.90;;;;;;5032744;28;20209;-78
2022/08/05 12:39:36;;;;;;;6.88;2.78;;;21.90;99.90;;;;;;5034493;28;20174;-78
2022/08/05 12:42:01;;;;;;;5.43;2.30;;;22.00;99.90;;;;;;5036256;28;20700;-77
2022/08/05 12:44:27;;;;;;;4.32;2.90;;;21.90;99.90;;;;;;5037155;28;20216;-79
2022/08/05 12:46:54;;;;;;;7.53;2.70;;;22.00;99.90;;;;;;5039452;28;20197;-79
2022/08/05 12:49:21;;;;;;;4.80;2.70;;;22.20;99.90;;;;;;5037569;28;20824;-79
2022/08/05 12:51:48;;;;;;;2.75;2.45;;;22.40;99.90;;;;;;5037605;28;20205;-79
2022/08/05 12:54:31;;;;;;;6.00;2.90;;;22.70;99.90;;;;;;5037525;28;20357;-78